DRW weather

Darwin International Airport
Darwin, Northern Territory, Australia

Public forecast

Using degrees Celsius for public forecast. Weather courtesy of forecast.io.

Current aviation weather report (METAR) for Darwin International Airport

Retrieved 2019/10/15 07:30 UTC (16 minutes ago):

YPDN 150730Z 02013KT CAVOK 33/15 Q1009

Aviation forecast (TAF) for Darwin International Airport

Retrieved 2019/10/15 06:33 UTC (1 hour ago):

TAF YPDN 150504Z 1506/1612 33008KT CAVOK FM151800 VRB03KT 9999 SCT015 FM160200 36013KT CAVOK